(°C)
12°
13°
14°
15°
16°
17°
18°
(°C)
10°
11°
12°
13°
14°
14°
WNW
WNW
NW
WNW
WNW
W
W
(km/u)
8-14
9-14
10-16
12-19
13-21
14-23
15-24
(mm)
0
0
0
0
0
0
0
(%)
0
0
0
0
0
0
0

Zonverhoging

/ 17.3°
sun-icon
UV 4
04:52
21:52
Afnemende maan (199°)
23:01
05:45

METAR voor 57.92°N 56.02°O (USPP)

Tijd Voorwaarden Temperatuur/
Dauwpunt
Wind Zicht Weer Wolken Luchtdruk Wijzigen Ruw
VFR 11°C / 9°C 270º 4kt >10km - Clouds and Visibility OK 1014 No Significant change. Runway 21: Clear and dry, 51-100% contamination with <1mm, friction coefficient 0.60. USPP 250200Z 27002MPS CAVOK 11/09 Q1014 R21/090060 NOSIG RMK QFE750
VFR 11°C / 8°C 280º 4kt >10km - Clouds and Visibility OK 1014 No Significant change. Runway 21: Clear and dry, 51-100% contamination with <1mm, friction coefficient 0.60. USPP 250130Z 28002MPS CAVOK 11/08 Q1014 R21/090060 NOSIG RMK QFE750
VFR 10°C / 8°C 280º 4kt >10km - Clouds and Visibility OK 1014 No Significant change. Runway 21: Clear and dry, 51-100% contamination with <1mm, friction coefficient 0.60. USPP 250100Z 28002MPS CAVOK 10/08 Q1014 R21/090060 NOSIG RMK QFE750
VFR 9°C / 8°C 270º 4kt >10km - Clouds and Visibility OK 1014 No Significant change. Runway 21: Clear and dry, 51-100% contamination with <1mm, friction coefficient 0.60. USPP 250030Z 27002MPS CAVOK 09/08 Q1014 R21/090060 NOSIG RMK QFE749
VFR 9°C / 9°C 270º 4kt >10km - Clouds and Visibility OK 1013 No Significant change. Runway 21: Damp, 11-25% contamination with <1mm, friction coefficient 0.55. USPP 250000Z 27002MPS CAVOK 09/09 Q1013 R21/120055 NOSIG RMK QFE749
VFR 10°C / 9°C 280º 2kt >10km - Clouds and Visibility OK 1013 No Significant change. Runway 21: Damp, 11-25% contamination with <1mm, friction coefficient 0.55. USPP 242330Z 28001MPS CAVOK 10/09 Q1013 R21/120055 NOSIG RMK QFE749
VFR 11°C / 10°C 280º 4kt >10km - Clouds and Visibility OK 1013 No Significant change. Runway 21: Damp, 11-25% contamination with <1mm, friction coefficient 0.55. USPP 242300Z 28002MPS CAVOK 11/10 Q1013 R21/120055 NOSIG RMK QFE749
VFR 11°C / 10°C variable 2kt >10km - Clouds and Visibility OK 1012 No Significant change. Runway 21: Damp, 11-25% contamination with <1mm, friction coefficient 0.55. USPP 242230Z VRB01MPS CAVOK 11/10 Q1012 R21/120055 NOSIG RMK QFE748
VFR 12°C / 9°C variable 2kt >10km - Clouds and Visibility OK 1012 No Significant change. Runway 21: Damp, 11-25% contamination with <1mm, friction coefficient 0.55. USPP 242200Z VRB01MPS CAVOK 12/09 Q1012 R21/120055 NOSIG RMK QFE748
VFR 13°C / 10°C 310º variable 280º to 340º 4kt >10km - Clouds and Visibility OK 1012 No Significant change. Runway 21: Damp, 11-25% contamination with <1mm, friction coefficient 0.55. USPP 242130Z 31002MPS 280V340 CAVOK 13/10 Q1012 R21/120055 NOSIG RMK QFE748
VFR 13°C / 10°C 310º variable 270º to 340º 4kt >10km - Clouds and Visibility OK 1011 No Significant change. Runway 21: Damp, 11-25% contamination with <1mm, friction coefficient 0.55. USPP 242100Z 31002MPS 270V340 CAVOK 13/10 Q1011 R21/120055 NOSIG RMK QFE748
VFR 14°C / 11°C 330º variable 290º to 360º 4kt >10km - Scattered Clouds 4000ft 1011 No Significant change. Runway 21: Damp, 11-25% contamination with <1mm, friction coefficient 0.55. USPP 242030Z 33002MPS 290V360 9999 SCT040 14/11 Q1011 R21/120055 NOSIG RMK QFE747
VFR 14°C / 11°C 330º 4kt >10km - Clouds and Visibility OK 1011 No Significant change. Runway 21: Damp, 11-25% contamination with <1mm, friction coefficient 0.55. USPP 242000Z 33002MPS CAVOK 14/11 Q1011 R21/120055 NOSIG RMK QFE747
VFR 14°C / 11°C variable 2kt >10km - Scattered Clouds 3700ft 1010 No Significant change. Runway 21: Damp, 11-25% contamination with <1mm, friction coefficient 0.55. USPP 241930Z VRB01MPS 9999 SCT037 14/11 Q1010 R21/120055 NOSIG RMK QFE747
VFR 14°C / 12°C 330º variable 300º to 010º 4kt >10km - Clouds and Visibility OK 1010 No Significant change. Runway 21: Damp, 11-25% contamination with <1mm, friction coefficient 0.55. USPP 241900Z 33002MPS 300V010 CAVOK 14/12 Q1010 R21/120055 NOSIG RMK QFE747
VFR 14°C / 12°C variable 2kt >10km - Clouds and Visibility OK 1010 No Significant change. Runway 21: Damp, 11-25% contamination with <1mm, friction coefficient 0.55. USPP 241830Z VRB01MPS CAVOK 14/12 Q1010 R21/120055 NOSIG RMK QFE747
VFR 14°C / 12°C variable 2kt >10km - Clouds and Visibility OK 1009 No Significant change. Runway 21: Damp, 11-25% contamination with <1mm, friction coefficient 0.55. USPP 241800Z VRB01MPS CAVOK 14/12 Q1009 R21/120055 NOSIG RMK QFE746
VFR 15°C / 12°C variable 2kt >10km - Broken Clouds 4600ft 1009 No Significant change. Runway 21: Damp, 11-25% contamination with <1mm, friction coefficient 0.55. USPP 241730Z VRB01MPS 9999 BKN046 15/12 Q1009 R21/120055 NOSIG RMK QFE746
VFR 15°C / 12°C variable 2kt >10km - Scattered Clouds 3300ft 1009 No Significant change. Runway 21: Damp, 11-25% contamination with <1mm, friction coefficient 0.55. USPP 241700Z VRB01MPS 9999 SCT033 15/12 Q1009 R21/120055 NOSIG RMK QFE746
VFR 15°C / 12°C 350º 4kt >10km - Scattered Clouds 3800ft 1009 No Significant change. Runway 21: Damp, 11-25% contamination with <1mm, friction coefficient 0.55. USPP 241630Z 35002MPS 9999 SCT038 15/12 Q1009 R21/120055 NOSIG RMK QFE746
VFR 16°C / 12°C 300º 4kt >10km - Clouds and Visibility OK 1008 No Significant change. Runway 21: Damp, 51-100% contamination with <1mm, friction coefficient 0.55. USPP 241600Z 30002MPS CAVOK 16/12 Q1008 R21/190055 NOSIG RMK QFE745
VFR 16°C / 13°C variable 2kt >10km - Scattered Clouds 5000ft 1008 No Significant change. Runway 21: Damp, 51-100% contamination with <1mm, friction coefficient 0.55. USPP 241530Z VRB01MPS 9999 SCT050CB 16/13 Q1008 R21/190055 NOSIG RMK QFE745
VFR 16°C / 13°C 320º variable 290º to 360º 4kt >10km - Few Clouds 1600ft 1007 No Significant change. Runway 21: Damp, 51-100% contamination with <1mm, friction coefficient 0.55. USPP 241500Z 32002MPS 290V360 9999 FEW016CB 16/13 Q1007 R21/190055 NOSIG RMK QFE745
VFR 18°C / 15°C 310º variable 280º to 340º 4kt >10km - Scattered Clouds 1600ft 1007 No Significant change. Runway 21: Damp, 51-100% contamination with <1mm, friction coefficient 0.55. USPP 241430Z 31002MPS 280V340 9999 SCT016CB 18/15 Q1007 R21/190055 NOSIG RMK QFE744

VFR

11°C / 9°C

[Meer]
Wind 270º 4kt
Zicht >10km
Weer -
Wolken Clouds and Visibility OK
Luchtdruk 1014
Wijzigen No Significant change. Runway 21: Clear and dry, 51-100% contamination with <1mm, friction coefficient 0.60.
Ruw USPP 250200Z 27002MPS CAVOK 11/09 Q1014 R21/090060 NOSIG RMK QFE750

VFR

11°C / 8°C

[Meer]
Wind 280º 4kt
Zicht >10km
Weer -
Wolken Clouds and Visibility OK
Luchtdruk 1014
Wijzigen No Significant change. Runway 21: Clear and dry, 51-100% contamination with <1mm, friction coefficient 0.60.
Ruw USPP 250130Z 28002MPS CAVOK 11/08 Q1014 R21/090060 NOSIG RMK QFE750

VFR

10°C / 8°C

[Meer]
Wind 280º 4kt
Zicht >10km
Weer -
Wolken Clouds and Visibility OK
Luchtdruk 1014
Wijzigen No Significant change. Runway 21: Clear and dry, 51-100% contamination with <1mm, friction coefficient 0.60.
Ruw USPP 250100Z 28002MPS CAVOK 10/08 Q1014 R21/090060 NOSIG RMK QFE750

VFR

9°C / 8°C

[Meer]
Wind 270º 4kt
Zicht >10km
Weer -
Wolken Clouds and Visibility OK
Luchtdruk 1014
Wijzigen No Significant change. Runway 21: Clear and dry, 51-100% contamination with <1mm, friction coefficient 0.60.
Ruw USPP 250030Z 27002MPS CAVOK 09/08 Q1014 R21/090060 NOSIG RMK QFE749

VFR

9°C / 9°C

[Meer]
Wind 270º 4kt
Zicht >10km
Weer -
Wolken Clouds and Visibility OK
Luchtdruk 1013
Wijzigen No Significant change. Runway 21: Damp, 11-25% contamination with <1mm, friction coefficient 0.55.
Ruw USPP 250000Z 27002MPS CAVOK 09/09 Q1013 R21/120055 NOSIG RMK QFE749

VFR

10°C / 9°C

[Meer]
Wind 280º 2kt
Zicht >10km
Weer -
Wolken Clouds and Visibility OK
Luchtdruk 1013
Wijzigen No Significant change. Runway 21: Damp, 11-25% contamination with <1mm, friction coefficient 0.55.
Ruw USPP 242330Z 28001MPS CAVOK 10/09 Q1013 R21/120055 NOSIG RMK QFE749

VFR

11°C / 10°C

[Meer]
Wind 280º 4kt
Zicht >10km
Weer -
Wolken Clouds and Visibility OK
Luchtdruk 1013
Wijzigen No Significant change. Runway 21: Damp, 11-25% contamination with <1mm, friction coefficient 0.55.
Ruw USPP 242300Z 28002MPS CAVOK 11/10 Q1013 R21/120055 NOSIG RMK QFE749

VFR

11°C / 10°C

[Meer]
Wind variable 2kt
Zicht >10km
Weer -
Wolken Clouds and Visibility OK
Luchtdruk 1012
Wijzigen No Significant change. Runway 21: Damp, 11-25% contamination with <1mm, friction coefficient 0.55.
Ruw USPP 242230Z VRB01MPS CAVOK 11/10 Q1012 R21/120055 NOSIG RMK QFE748

VFR

12°C / 9°C

[Meer]
Wind variable 2kt
Zicht >10km
Weer -
Wolken Clouds and Visibility OK
Luchtdruk 1012
Wijzigen No Significant change. Runway 21: Damp, 11-25% contamination with <1mm, friction coefficient 0.55.
Ruw USPP 242200Z VRB01MPS CAVOK 12/09 Q1012 R21/120055 NOSIG RMK QFE748

VFR

13°C / 10°C

[Meer]
Wind 310º variable 280º to 340º 4kt
Zicht >10km
Weer -
Wolken Clouds and Visibility OK
Luchtdruk 1012
Wijzigen No Significant change. Runway 21: Damp, 11-25% contamination with <1mm, friction coefficient 0.55.
Ruw USPP 242130Z 31002MPS 280V340 CAVOK 13/10 Q1012 R21/120055 NOSIG RMK QFE748

VFR

13°C / 10°C

[Meer]
Wind 310º variable 270º to 340º 4kt
Zicht >10km
Weer -
Wolken Clouds and Visibility OK
Luchtdruk 1011
Wijzigen No Significant change. Runway 21: Damp, 11-25% contamination with <1mm, friction coefficient 0.55.
Ruw USPP 242100Z 31002MPS 270V340 CAVOK 13/10 Q1011 R21/120055 NOSIG RMK QFE748

VFR

14°C / 11°C

[Meer]
Wind 330º variable 290º to 360º 4kt
Zicht >10km
Weer -
Wolken Scattered Clouds 4000ft
Luchtdruk 1011
Wijzigen No Significant change. Runway 21: Damp, 11-25% contamination with <1mm, friction coefficient 0.55.
Ruw USPP 242030Z 33002MPS 290V360 9999 SCT040 14/11 Q1011 R21/120055 NOSIG RMK QFE747

VFR

14°C / 11°C

[Meer]
Wind 330º 4kt
Zicht >10km
Weer -
Wolken Clouds and Visibility OK
Luchtdruk 1011
Wijzigen No Significant change. Runway 21: Damp, 11-25% contamination with <1mm, friction coefficient 0.55.
Ruw USPP 242000Z 33002MPS CAVOK 14/11 Q1011 R21/120055 NOSIG RMK QFE747

VFR

14°C / 11°C

[Meer]
Wind variable 2kt
Zicht >10km
Weer -
Wolken Scattered Clouds 3700ft
Luchtdruk 1010
Wijzigen No Significant change. Runway 21: Damp, 11-25% contamination with <1mm, friction coefficient 0.55.
Ruw USPP 241930Z VRB01MPS 9999 SCT037 14/11 Q1010 R21/120055 NOSIG RMK QFE747

VFR

14°C / 12°C

[Meer]
Wind 330º variable 300º to 010º 4kt
Zicht >10km
Weer -
Wolken Clouds and Visibility OK
Luchtdruk 1010
Wijzigen No Significant change. Runway 21: Damp, 11-25% contamination with <1mm, friction coefficient 0.55.
Ruw USPP 241900Z 33002MPS 300V010 CAVOK 14/12 Q1010 R21/120055 NOSIG RMK QFE747

VFR

14°C / 12°C

[Meer]
Wind variable 2kt
Zicht >10km
Weer -
Wolken Clouds and Visibility OK
Luchtdruk 1010
Wijzigen No Significant change. Runway 21: Damp, 11-25% contamination with <1mm, friction coefficient 0.55.
Ruw USPP 241830Z VRB01MPS CAVOK 14/12 Q1010 R21/120055 NOSIG RMK QFE747

VFR

14°C / 12°C

[Meer]
Wind variable 2kt
Zicht >10km
Weer -
Wolken Clouds and Visibility OK
Luchtdruk 1009
Wijzigen No Significant change. Runway 21: Damp, 11-25% contamination with <1mm, friction coefficient 0.55.
Ruw USPP 241800Z VRB01MPS CAVOK 14/12 Q1009 R21/120055 NOSIG RMK QFE746

VFR

15°C / 12°C

[Meer]
Wind variable 2kt
Zicht >10km
Weer -
Wolken Broken Clouds 4600ft
Luchtdruk 1009
Wijzigen No Significant change. Runway 21: Damp, 11-25% contamination with <1mm, friction coefficient 0.55.
Ruw USPP 241730Z VRB01MPS 9999 BKN046 15/12 Q1009 R21/120055 NOSIG RMK QFE746

VFR

15°C / 12°C

[Meer]
Wind variable 2kt
Zicht >10km
Weer -
Wolken Scattered Clouds 3300ft
Luchtdruk 1009
Wijzigen No Significant change. Runway 21: Damp, 11-25% contamination with <1mm, friction coefficient 0.55.
Ruw USPP 241700Z VRB01MPS 9999 SCT033 15/12 Q1009 R21/120055 NOSIG RMK QFE746

VFR

15°C / 12°C

[Meer]
Wind 350º 4kt
Zicht >10km
Weer -
Wolken Scattered Clouds 3800ft
Luchtdruk 1009
Wijzigen No Significant change. Runway 21: Damp, 11-25% contamination with <1mm, friction coefficient 0.55.
Ruw USPP 241630Z 35002MPS 9999 SCT038 15/12 Q1009 R21/120055 NOSIG RMK QFE746

VFR

16°C / 12°C

[Meer]
Wind 300º 4kt
Zicht >10km
Weer -
Wolken Clouds and Visibility OK
Luchtdruk 1008
Wijzigen No Significant change. Runway 21: Damp, 51-100% contamination with <1mm, friction coefficient 0.55.
Ruw USPP 241600Z 30002MPS CAVOK 16/12 Q1008 R21/190055 NOSIG RMK QFE745

VFR

16°C / 13°C

[Meer]
Wind variable 2kt
Zicht >10km
Weer -
Wolken Scattered Clouds 5000ft
Luchtdruk 1008
Wijzigen No Significant change. Runway 21: Damp, 51-100% contamination with <1mm, friction coefficient 0.55.
Ruw USPP 241530Z VRB01MPS 9999 SCT050CB 16/13 Q1008 R21/190055 NOSIG RMK QFE745

VFR

16°C / 13°C

[Meer]
Wind 320º variable 290º to 360º 4kt
Zicht >10km
Weer -
Wolken Few Clouds 1600ft
Luchtdruk 1007
Wijzigen No Significant change. Runway 21: Damp, 51-100% contamination with <1mm, friction coefficient 0.55.
Ruw USPP 241500Z 32002MPS 290V360 9999 FEW016CB 16/13 Q1007 R21/190055 NOSIG RMK QFE745

VFR

18°C / 15°C

[Meer]
Wind 310º variable 280º to 340º 4kt
Zicht >10km
Weer -
Wolken Scattered Clouds 1600ft
Luchtdruk 1007
Wijzigen No Significant change. Runway 21: Damp, 51-100% contamination with <1mm, friction coefficient 0.55.
Ruw USPP 241430Z 31002MPS 280V340 9999 SCT016CB 18/15 Q1007 R21/190055 NOSIG RMK QFE744

TAF voor 57.92°N 56.02°O (USPP)

From till


From till Wind 320º 6kt. Gust 16kt. Visibility 6000m. Scattered Clouds 1600ft.
Temporarly from till Visibility 305.775m. Fog . Broken Clouds 200ft.
From till Wind 290º 6kt. Gust 25kt. Visibility 10km or more. Broken Clouds 2000ft.
Temporarly from till Light Showers Rain . Broken Clouds 2000ft.
Becoming from till Wind 230º 6kt. Gust 16kt. Visibility 10km or more. Broken Clouds 2000ft.

Ruw: TAF USPP 242255Z 2500/2524 32003G08MPS 6000 SCT016 TEMPO 2500/2503 0300 FG BKN002 FM250500 29003G13MPS 9999 BKN020 TEMPO 2507/2516 -SHRA BKN020CB BECMG 2514/2515 23003G08MPS

Huidige satelliet- en regenbeelden voor 57.92°N 56.02°O

De locatiemarkering is geplaatst op 57.92°N 56.02°O. [Meer]

Het realtime satellietbeeld combineert zichtbaar licht overdag met infraroodstraling 's nachts. 's Nachts is het beeld niet donker, omdat infraroodstraling temperatuurverschillen kan waarnemen. Helaas zijn lage wolken en mist moeilijk te onderscheiden van grondtemperaturen en kunnen dus 's nachts bijna onzichtbaar zijn. Meteosat-satellietbeelden voor Europa worden elke 5 minuten in real time bijgewerkt. De beelden van GOES-16/GOES-17 (Noord- en Zuid-Amerika) en Himawari (Azië) worden om de 10 minuten bijgewerkt.

Copyright 2021 EUMETSAT / meteoblue. / Copyright 2021 meteoblue

Radar en neerslag nowcast voor 57.92°N 56.02°O

Motregen
Licht
Matig
Zwaar
Zeer zwaar
Hail

De locatiemarkering wordt geplaatst op 57.92°N 56.02°O. Deze animation toont de neerslag radar van het afgelopen uur, maar ook de 1h verwachting. Motregen en lichte sneeuw zijn niet zichtbaar op de radar. Neerslag intensiteitwordt in een kleurcode weergegeven, variërend van licht blauw tot zwart paars.